createdAt,value
2022-11-12T00:00:06.984Z,6.30
2022-11-12T00:01:02.300Z,6.34
2022-11-12T00:01:58.587Z,6.36
2022-11-12T00:02:53.852Z,6.42
2022-11-12T00:03:49.034Z,6.50
2022-11-12T00:04:48.438Z,6.53
2022-11-12T00:05:43.502Z,6.54
2022-11-12T00:06:38.706Z,6.57
2022-11-12T00:07:33.897Z,6.58
2022-11-12T00:08:29.411Z,6.58
2022-11-12T00:09:23.930Z,6.54
2022-11-12T00:10:19.013Z,6.52
2022-11-12T00:11:14.222Z,6.50
2022-11-12T00:12:09.284Z,6.52
2022-11-12T00:13:04.292Z,6.52
2022-11-12T00:13:59.303Z,6.52
2022-11-12T00:14:54.362Z,6.52
2022-11-12T00:15:49.519Z,6.52
2022-11-12T00:16:44.691Z,6.59
2022-11-12T00:17:39.856Z,6.65
2022-11-12T00:18:34.901Z,6.69
2022-11-12T00:19:29.953Z,6.68
2022-11-12T00:20:24.962Z,6.68
2022-11-12T00:21:20.008Z,6.70
2022-11-12T00:22:15.060Z,6.71
2022-11-12T00:23:10.080Z,6.72
2022-11-12T00:24:05.140Z,6.74
2022-11-12T00:25:00.149Z,6.75
2022-11-12T00:25:55.210Z,6.74
2022-11-12T00:26:50.260Z,6.76
2022-11-12T00:27:45.265Z,6.74
2022-11-12T00:28:40.429Z,6.71
2022-11-12T00:29:35.601Z,6.72
2022-11-12T00:30:30.739Z,6.71
2022-11-12T00:31:25.928Z,6.67
2022-11-12T00:32:21.233Z,6.62
2022-11-12T00:33:16.520Z,6.61
2022-11-12T00:34:11.684Z,6.59
2022-11-12T00:35:11.020Z,6.56
2022-11-12T00:36:03.160Z,6.48
2022-11-12T00:36:57.424Z,6.45
2022-11-12T00:37:52.545Z,6.46
2022-11-12T00:38:47.724Z,6.40
2022-11-12T00:39:43.020Z,6.41
2022-11-12T00:40:38.405Z,6.39
2022-11-12T00:41:33.546Z,6.36
2022-11-12T00:42:28.717Z,6.33
2022-11-12T00:43:23.881Z,6.32
2022-11-12T00:44:19.024Z,6.30
2022-11-12T00:45:14.449Z,6.27
2022-11-12T00:46:09.666Z,6.25
2022-11-12T00:47:04.817Z,6.29
2022-11-12T00:47:59.968Z,6.32
2022-11-12T00:48:55.255Z,6.32
2022-11-12T00:49:50.535Z,6.33
2022-11-12T00:50:45.716Z,6.32
2022-11-12T00:51:40.856Z,6.31
2022-11-12T00:52:36.114Z,6.29
2022-11-12T00:53:31.362Z,6.29
2022-11-12T00:54:26.406Z,6.27
2022-11-12T00:55:21.423Z,6.28
2022-11-12T00:56:16.443Z,6.28
2022-11-12T00:57:11.586Z,6.29
2022-11-12T00:58:06.771Z,6.27
2022-11-12T00:59:01.770Z,6.30
2022-11-12T00:59:56.837Z,6.30
2022-11-12T01:00:51.874Z,6.28
2022-11-12T01:01:46.885Z,6.26
2022-11-12T01:02:46.362Z,6.27
2022-11-12T01:03:38.003Z,6.25
2022-11-12T01:04:31.970Z,6.23
2022-11-12T01:05:26.992Z,6.24
2022-11-12T01:06:22.001Z,6.29
2022-11-12T01:07:18.856Z,6.30
2022-11-12T01:08:13.905Z,6.28
2022-11-12T01:09:08.931Z,6.26
2022-11-12T01:10:03.969Z,6.22
2022-11-12T01:11:00.228Z,6.19
2022-11-12T01:11:55.102Z,6.19
2022-11-12T01:12:50.371Z,6.24
2022-11-12T01:13:45.626Z,6.26
2022-11-12T01:14:41.539Z,6.23
2022-11-12T01:15:36.079Z,6.24
2022-11-12T01:16:31.216Z,6.24
2022-11-12T01:17:26.418Z,6.20
2022-11-12T01:18:21.608Z,6.23
2022-11-12T01:19:16.865Z,6.24
2022-11-12T01:20:12.025Z,6.24
2022-11-12T01:21:07.397Z,6.25
2022-11-12T01:22:02.564Z,6.22
2022-11-12T01:22:57.846Z,6.25
2022-11-12T01:23:52.997Z,6.30
2022-11-12T01:24:48.154Z,6.27
2022-11-12T01:25:43.409Z,6.25
2022-11-12T01:26:38.821Z,6.23
2022-11-12T01:27:33.880Z,6.23
2022-11-12T01:28:29.188Z,6.23
2022-11-12T01:29:24.321Z,6.24
2022-11-12T01:30:19.490Z,6.23
2022-11-12T01:31:14.669Z,6.26
2022-11-12T01:32:09.959Z,6.27
2022-11-12T01:33:05.005Z,6.28
2022-11-12T01:34:00.143Z,6.26
2022-11-12T01:34:55.281Z,6.24
2022-11-12T01:35:50.544Z,6.21
2022-11-12T01:36:45.558Z,6.15
2022-11-12T01:37:40.557Z,6.15
2022-11-12T01:38:35.586Z,6.15
2022-11-12T01:39:33.723Z,6.13
2022-11-12T01:40:28.869Z,6.12
2022-11-12T01:41:24.159Z,6.12
2022-11-12T01:42:19.347Z,6.11
2022-11-12T01:43:15.351Z,6.13
2022-11-12T01:44:10.482Z,6.11
2022-11-12T01:45:05.659Z,6.13
2022-11-12T01:46:00.802Z,6.11
2022-11-12T01:46:56.085Z,6.08
2022-11-12T01:47:51.235Z,6.03
2022-11-12T01:48:46.536Z,5.99
2022-11-12T01:49:41.817Z,5.97
2022-11-12T01:50:36.861Z,6.01
2022-11-12T01:51:31.997Z,6.09
2022-11-12T01:52:27.164Z,6.13
2022-11-12T01:53:22.314Z,6.13
2022-11-12T01:54:17.593Z,6.12
2022-11-12T01:55:12.745Z,6.13
2022-11-12T01:56:08.038Z,6.14
2022-11-12T01:57:03.183Z,6.13
2022-11-12T01:57:59.050Z,6.11
2022-11-12T01:58:54.393Z,6.09
2022-11-12T01:59:49.515Z,6.09
2022-11-12T02:00:46.100Z,6.11
2022-11-12T02:01:41.271Z,6.12
2022-11-12T02:02:37.138Z,6.11
2022-11-12T02:03:32.927Z,6.11
2022-11-12T02:04:27.579Z,6.10
2022-11-12T02:05:23.417Z,6.10
2022-11-12T02:06:18.595Z,6.09
2022-11-12T02:07:14.523Z,6.05
2022-11-12T02:08:09.667Z,6.02
2022-11-12T02:09:05.123Z,6.04
2022-11-12T02:10:01.032Z,6.09
2022-11-12T02:10:56.192Z,6.15
2022-11-12T02:11:51.334Z,6.18
2022-11-12T02:12:47.738Z,6.18
2022-11-12T02:13:43.045Z,6.16
2022-11-12T02:14:38.762Z,6.10
2022-11-12T02:15:33.941Z,6.07
2022-11-12T02:16:29.293Z,6.03
2022-11-12T02:17:24.927Z,5.92
2022-11-12T02:18:20.198Z,5.85
2022-11-12T02:19:16.223Z,5.78
2022-11-12T02:20:11.247Z,5.69
2022-11-12T02:21:06.562Z,5.66
2022-11-12T02:22:02.304Z,5.67
2022-11-12T02:22:57.447Z,5.70
2022-11-12T02:23:52.854Z,5.65
2022-11-12T02:24:49.156Z,5.63
2022-11-12T02:25:44.195Z,5.61
2022-11-12T02:26:39.931Z,5.62
2022-11-12T02:27:35.232Z,5.64
2022-11-12T02:28:30.525Z,5.64
2022-11-12T02:29:26.297Z,5.63
2022-11-12T02:30:21.505Z,5.63
2022-11-12T02:31:17.225Z,5.64
2022-11-12T02:32:12.495Z,5.66
2022-11-12T02:33:07.794Z,5.67
2022-11-12T02:34:03.525Z,5.67
2022-11-12T02:34:58.692Z,5.67
2022-11-12T02:35:53.878Z,5.67
2022-11-12T02:36:50.257Z,5.65
2022-11-12T02:37:45.442Z,5.57
2022-11-12T02:38:41.422Z,5.53
2022-11-12T02:39:36.686Z,5.52
2022-11-12T02:40:31.906Z,5.52
2022-11-12T02:41:27.667Z,5.49
2022-11-12T02:42:22.850Z,5.49
2022-11-12T02:43:18.687Z,5.48
2022-11-12T02:44:13.852Z,5.48
2022-11-12T02:45:09.171Z,5.48
2022-11-12T02:46:05.030Z,5.46
2022-11-12T02:47:00.216Z,5.45
2022-11-12T02:47:55.466Z,5.43
2022-11-12T02:48:52.720Z,5.38
2022-11-12T02:49:47.164Z,5.36
2022-11-12T02:50:43.110Z,5.35
2022-11-12T02:51:38.235Z,5.37
2022-11-12T02:52:33.402Z,5.39
2022-11-12T02:53:29.343Z,5.49
2022-11-12T02:54:24.505Z,5.59
2022-11-12T02:55:20.532Z,5.65
2022-11-12T02:56:15.553Z,5.68
2022-11-12T02:57:11.024Z,5.74
2022-11-12T02:58:06.225Z,5.75
2022-11-12T02:59:01.492Z,5.70
2022-11-12T02:59:58.028Z,5.63
2022-11-12T03:00:53.292Z,5.58
2022-11-12T03:01:48.980Z,5.53
2022-11-12T03:02:44.249Z,5.48
2022-11-12T03:03:39.579Z,5.45
2022-11-12T03:04:35.162Z,5.49
2022-11-12T03:05:30.343Z,5.63
2022-11-12T03:06:26.213Z,5.73
2022-11-12T03:07:21.415Z,5.73
2022-11-12T03:08:16.712Z,5.68
2022-11-12T03:09:13.044Z,5.66
2022-11-12T03:10:07.812Z,5.62
2022-11-12T03:11:03.767Z,5.60
2022-11-12T03:11:59.372Z,5.64
2022-11-12T03:12:54.544Z,5.66
2022-11-12T03:13:50.425Z,5.67
2022-11-12T03:14:45.585Z,5.71
2022-11-12T03:15:40.868Z,5.74
2022-11-12T03:16:36.014Z,5.73
2022-11-12T03:17:31.202Z,5.68
2022-11-12T03:18:26.401Z,5.64
2022-11-12T03:19:21.634Z,5.62
2022-11-12T03:20:17.402Z,5.62
2022-11-12T03:21:12.608Z,5.63
2022-11-12T03:22:07.742Z,5.60
2022-11-12T03:23:03.781Z,5.58
2022-11-12T03:23:58.931Z,5.57
2022-11-12T03:24:54.231Z,5.57
2022-11-12T03:25:49.324Z,5.58
2022-11-12T03:26:44.354Z,5.55
2022-11-12T03:27:39.349Z,5.54
2022-11-12T03:28:34.431Z,5.51
2022-11-12T03:29:29.543Z,5.49
2022-11-12T03:30:24.529Z,5.47
2022-11-12T03:31:20.280Z,5.48
2022-11-12T03:32:14.478Z,5.49
2022-11-12T03:33:09.488Z,5.52
2022-11-12T03:34:04.647Z,5.53
2022-11-12T03:34:59.619Z,5.53
2022-11-12T03:35:54.666Z,5.52
2022-11-12T03:36:49.738Z,5.53
2022-11-12T03:37:44.788Z,5.52
2022-11-12T03:38:39.804Z,5.54
2022-11-12T03:39:34.824Z,5.50
2022-11-12T03:40:29.834Z,5.50
2022-11-12T03:41:24.898Z,5.53
2022-11-12T03:42:19.896Z,5.55
2022-11-12T03:43:14.962Z,5.56
2022-11-12T03:44:10.153Z,5.58
2022-11-12T03:45:05.227Z,5.58
2022-11-12T03:46:00.272Z,5.58
2022-11-12T03:46:59.187Z,5.57
2022-11-12T03:47:54.312Z,5.54
2022-11-12T03:48:49.479Z,5.54
2022-11-12T03:49:44.740Z,5.55
2022-11-12T03:50:40.434Z,5.55
2022-11-12T03:51:34.699Z,5.53
2022-11-12T03:52:29.745Z,5.56
2022-11-12T03:53:24.778Z,5.59
2022-11-12T03:54:20.278Z,5.63
2022-11-12T03:55:15.017Z,5.61
2022-11-12T03:56:10.909Z,5.64
2022-11-12T03:57:05.230Z,5.66
2022-11-12T03:58:00.219Z,5.68
2022-11-12T03:58:59.539Z,5.70
2022-11-12T03:59:54.676Z,5.70
2022-11-12T04:00:49.789Z,5.66
2022-11-12T04:01:45.345Z,5.63
2022-11-12T04:02:39.924Z,5.64
2022-11-12T04:03:35.565Z,5.64
2022-11-12T04:04:30.176Z,5.63
2022-11-12T04:05:25.731Z,5.65
2022-11-12T04:06:20.380Z,5.67
2022-11-12T04:07:15.468Z,5.68
2022-11-12T04:08:10.392Z,5.67
2022-11-12T04:09:05.482Z,5.68
2022-11-12T04:10:00.825Z,5.69
2022-11-12T04:10:55.526Z,5.70
2022-11-12T04:11:50.773Z,5.69
2022-11-12T04:12:46.499Z,5.63
2022-11-12T04:13:41.662Z,5.59
2022-11-12T04:14:37.467Z,5.59
2022-11-12T04:15:32.702Z,5.59
2022-11-12T04:16:27.984Z,5.58
2022-11-12T04:17:23.639Z,5.55
2022-11-12T04:18:18.928Z,5.58
2022-11-12T04:19:14.060Z,5.58
2022-11-12T04:20:10.488Z,5.57
2022-11-12T04:21:05.797Z,5.57
2022-11-12T04:22:01.639Z,5.56
2022-11-12T04:22:56.888Z,5.55
2022-11-12T04:23:52.038Z,5.55
2022-11-12T04:24:47.980Z,5.57
2022-11-12T04:25:43.105Z,5.57
2022-11-12T04:26:38.816Z,5.58
2022-11-12T04:27:33.951Z,5.62
2022-11-12T04:28:29.469Z,5.65
2022-11-12T04:29:25.112Z,5.65
2022-11-12T04:30:20.403Z,5.64
2022-11-12T04:31:15.891Z,5.64
2022-11-12T04:32:11.889Z,5.64
2022-11-12T04:33:07.013Z,5.65
2022-11-12T04:34:01.876Z,5.68
2022-11-12T04:34:58.609Z,5.72
2022-11-12T04:35:53.877Z,5.75
2022-11-12T04:36:49.748Z,5.75
2022-11-12T04:37:44.960Z,5.76
2022-11-12T04:38:40.022Z,5.77
2022-11-12T04:39:35.897Z,5.76
2022-11-12T04:40:30.907Z,5.72
2022-11-12T04:41:26.757Z,5.71
2022-11-12T04:42:21.919Z,5.70
2022-11-12T04:43:17.199Z,5.67
2022-11-12T04:44:12.350Z,5.64
2022-11-12T04:45:07.778Z,5.64
2022-11-12T04:46:02.656Z,5.65
2022-11-12T04:46:57.686Z,5.64
2022-11-12T04:47:53.666Z,5.63
2022-11-12T04:48:47.786Z,5.59
2022-11-12T04:49:42.805Z,5.57
2022-11-12T04:50:39.053Z,5.54
2022-11-12T04:51:34.076Z,5.56
2022-11-12T04:52:29.258Z,5.61
2022-11-12T04:53:24.329Z,5.63
2022-11-12T04:54:19.382Z,5.65
2022-11-12T04:55:14.384Z,5.63
2022-11-12T04:56:09.573Z,5.59
2022-11-12T04:57:05.021Z,5.56
2022-11-12T04:58:00.987Z,5.54
2022-11-12T04:58:58.067Z,5.55
2022-11-12T04:59:53.105Z,5.54
2022-11-12T05:00:48.178Z,5.50
2022-11-12T05:01:43.281Z,5.46
2022-11-12T05:02:38.188Z,5.45
2022-11-12T05:03:33.212Z,5.43
2022-11-12T05:04:28.219Z,5.44
2022-11-12T05:05:23.242Z,5.40
2022-11-12T05:06:18.831Z,5.38
2022-11-12T05:07:13.699Z,5.35
2022-11-12T05:08:08.457Z,5.33
2022-11-12T05:09:03.523Z,5.30
2022-11-12T05:09:58.517Z,5.33
2022-11-12T05:10:53.647Z,5.34
2022-11-12T05:11:48.646Z,5.33
2022-11-12T05:12:43.688Z,5.36
2022-11-12T05:13:41.271Z,5.36
2022-11-12T05:14:36.279Z,5.39
2022-11-12T05:15:31.300Z,5.45
2022-11-12T05:16:26.302Z,5.44
2022-11-12T05:17:21.396Z,5.39
2022-11-12T05:18:16.318Z,5.39
2022-11-12T05:19:11.617Z,5.39
2022-11-12T05:20:06.657Z,5.42
2022-11-12T05:21:02.396Z,5.43
2022-11-12T05:21:57.661Z,5.47
2022-11-12T05:23:05.432Z,5.47
2022-11-12T05:23:49.072Z,5.46
2022-11-12T05:24:43.841Z,5.47
2022-11-12T05:25:38.966Z,5.49
2022-11-12T05:26:34.398Z,5.50
2022-11-12T05:27:30.029Z,5.51
2022-11-12T05:28:25.605Z,5.52
2022-11-12T05:29:20.336Z,5.51
2022-11-12T05:30:15.379Z,5.51
2022-11-12T05:31:10.400Z,5.51
2022-11-12T05:32:05.464Z,5.53
2022-11-12T05:33:00.649Z,5.54
2022-11-12T05:33:55.545Z,5.57
2022-11-12T05:34:50.587Z,5.58
2022-11-12T05:35:45.607Z,5.56
2022-11-12T05:36:46.196Z,5.53
2022-11-12T05:37:41.337Z,5.52
2022-11-12T05:38:36.742Z,5.51
2022-11-12T05:39:32.437Z,5.49
2022-11-12T05:40:27.625Z,5.51
2022-11-12T05:41:22.764Z,5.51
2022-11-12T05:42:19.202Z,5.52
2022-11-12T05:43:14.374Z,5.58
2022-11-12T05:44:10.214Z,5.61
2022-11-12T05:45:05.462Z,5.63
2022-11-12T05:46:01.442Z,5.62
2022-11-12T05:46:56.371Z,5.61
2022-11-12T05:47:51.696Z,5.64
2022-11-12T05:48:48.231Z,5.65
2022-11-12T05:49:42.572Z,5.67
2022-11-12T05:50:51.242Z,5.68
2022-11-12T05:51:35.083Z,5.66
2022-11-12T05:52:29.575Z,5.67
2022-11-12T05:53:24.657Z,5.68
2022-11-12T05:54:21.076Z,5.68
2022-11-12T05:55:16.476Z,5.65
2022-11-12T05:56:12.386Z,5.61
2022-11-12T05:57:07.388Z,5.60
2022-11-12T05:58:03.776Z,5.58
2022-11-12T05:58:58.536Z,5.55
2022-11-12T05:59:53.812Z,5.56
2022-11-12T06:00:49.725Z,5.59
2022-11-12T06:01:44.983Z,5.61
2022-11-12T06:02:40.391Z,5.63
2022-11-12T06:03:35.997Z,5.64
2022-11-12T06:04:31.187Z,5.65
2022-11-12T06:05:26.343Z,5.62
2022-11-12T06:06:23.015Z,5.55
2022-11-12T06:07:18.159Z,5.51
2022-11-12T06:08:13.913Z,5.51
2022-11-12T06:09:09.238Z,5.55
2022-11-12T06:10:04.481Z,5.58
2022-11-12T06:11:00.249Z,5.57
2022-11-12T06:11:55.491Z,5.58
2022-11-12T06:12:51.278Z,5.57
2022-11-12T06:13:46.476Z,5.56
2022-11-12T06:14:41.849Z,5.53
2022-11-12T06:15:39.427Z,5.50
2022-11-12T06:16:32.954Z,5.49
2022-11-12T06:17:28.172Z,5.46
2022-11-12T06:18:24.750Z,5.46
2022-11-12T06:19:19.713Z,5.50
2022-11-12T06:20:15.648Z,5.57
2022-11-12T06:21:10.854Z,5.63
2022-11-12T06:22:06.055Z,5.68
2022-11-12T06:23:02.040Z,5.76
2022-11-12T06:23:57.134Z,5.87
2022-11-12T06:24:52.323Z,5.92
2022-11-12T06:25:47.548Z,5.94
2022-11-12T06:26:44.028Z,5.92
2022-11-12T06:27:39.339Z,5.89
2022-11-12T06:28:34.527Z,5.88
2022-11-12T06:29:30.259Z,5.89
2022-11-12T06:30:25.899Z,5.89
2022-11-12T06:31:21.419Z,5.87
2022-11-12T06:32:16.680Z,5.85
2022-11-12T06:33:12.014Z,5.84
2022-11-12T06:34:08.650Z,5.84
2022-11-12T06:35:03.015Z,5.82
2022-11-12T06:35:58.255Z,5.80
2022-11-12T06:36:54.569Z,5.76
2022-11-12T06:37:50.026Z,5.74
2022-11-12T06:38:45.743Z,5.75
2022-11-12T06:39:41.033Z,5.80
2022-11-12T06:40:36.393Z,5.81
2022-11-12T06:41:32.191Z,5.84
2022-11-12T06:42:27.439Z,5.89
2022-11-12T06:43:22.735Z,5.97
2022-11-12T06:44:22.161Z,6.01
2022-11-12T06:45:13.516Z,6.00
2022-11-12T06:46:10.223Z,6.00
2022-11-12T06:47:05.617Z,5.99
2022-11-12T06:48:00.757Z,6.04
2022-11-12T06:48:56.526Z,6.05
2022-11-12T06:49:51.867Z,5.99
2022-11-12T06:50:47.212Z,5.91
2022-11-12T06:51:42.714Z,5.85
2022-11-12T06:52:37.627Z,5.81
2022-11-12T06:53:32.713Z,5.78
2022-11-12T06:54:27.656Z,5.73
2022-11-12T06:55:22.729Z,5.73
2022-11-12T06:56:17.810Z,5.72
2022-11-12T06:57:12.879Z,5.73
2022-11-12T06:58:07.946Z,5.69
2022-11-12T06:59:03.133Z,5.64
2022-11-12T06:59:59.971Z,5.61
2022-11-12T07:00:55.388Z,5.66
2022-11-12T07:01:50.672Z,5.69
2022-11-12T07:02:49.900Z,5.69
2022-11-12T07:03:45.431Z,5.69
2022-11-12T07:04:40.827Z,5.69
2022-11-12T07:05:36.158Z,5.72
2022-11-12T07:06:31.510Z,5.70
2022-11-12T07:07:28.284Z,5.64
2022-11-12T07:08:23.814Z,5.63
2022-11-12T07:09:18.959Z,5.64
2022-11-12T07:10:14.310Z,5.67
2022-11-12T07:11:10.347Z,5.68
2022-11-12T07:12:06.098Z,5.69
2022-11-12T07:13:00.768Z,5.67
2022-11-12T07:13:56.066Z,5.57
2022-11-12T07:14:51.503Z,5.49
2022-11-12T07:15:46.783Z,5.45
2022-11-12T07:16:42.097Z,5.39
2022-11-12T07:17:37.432Z,5.32
2022-11-12T07:18:32.735Z,5.31
2022-11-12T07:19:28.040Z,5.32
2022-11-12T07:20:23.399Z,5.35
2022-11-12T07:21:18.713Z,5.36
2022-11-12T07:22:14.766Z,5.34
2022-11-12T07:23:09.403Z,5.33
2022-11-12T07:24:04.807Z,5.30
2022-11-12T07:25:00.171Z,5.29
2022-11-12T07:25:55.368Z,5.31
2022-11-12T07:26:50.826Z,5.40
2022-11-12T07:27:46.079Z,5.49
2022-11-12T07:28:41.470Z,5.58
2022-11-12T07:29:47.595Z,5.61
2022-11-12T07:30:33.305Z,5.57
2022-11-12T07:31:27.724Z,5.56
2022-11-12T07:32:23.062Z,5.56
2022-11-12T07:33:18.445Z,5.64
2022-11-12T07:34:13.836Z,5.70
2022-11-12T07:35:09.337Z,5.73
2022-11-12T07:36:04.601Z,5.68
2022-11-12T07:37:00.413Z,5.60
2022-11-12T07:37:59.689Z,5.58
2022-11-12T07:38:51.327Z,5.53
2022-11-12T07:39:46.479Z,5.55
2022-11-12T07:40:41.509Z,5.58
2022-11-12T07:41:42.208Z,5.56
2022-11-12T07:42:38.150Z,5.56
2022-11-12T07:43:33.324Z,5.58
2022-11-12T07:44:28.882Z,5.55
2022-11-12T07:45:24.240Z,5.49
2022-11-12T07:46:19.647Z,5.49
2022-11-12T07:47:16.033Z,5.50
2022-11-12T07:48:11.409Z,5.51
2022-11-12T07:49:07.356Z,5.52
2022-11-12T07:50:02.658Z,5.62
2022-11-12T07:50:58.189Z,5.73
2022-11-12T07:51:53.849Z,5.78
2022-11-12T07:52:49.440Z,5.83
2022-11-12T07:53:44.946Z,5.83
2022-11-12T07:54:40.965Z,5.81
2022-11-12T07:55:35.681Z,5.82
2022-11-12T07:56:31.478Z,5.81
2022-11-12T07:57:26.719Z,5.77
2022-11-12T07:58:22.197Z,5.69
2022-11-12T07:59:18.478Z,5.65
2022-11-12T08:00:13.887Z,5.64
2022-11-12T08:01:09.769Z,5.66
2022-11-12T08:02:05.147Z,5.66
2022-11-12T08:03:00.611Z,5.64
2022-11-12T08:03:56.391Z,5.59
2022-11-12T08:04:51.864Z,5.51
2022-11-12T08:05:47.678Z,5.47
2022-11-12T08:06:43.176Z,5.46
2022-11-12T08:07:38.780Z,5.47
2022-11-12T08:08:34.139Z,5.46
2022-11-12T08:09:29.936Z,5.46
2022-11-12T08:10:24.925Z,5.45
2022-11-12T08:11:21.594Z,5.44
2022-11-12T08:12:17.158Z,5.43
2022-11-12T08:13:12.920Z,5.43
2022-11-12T08:14:08.612Z,5.47
2022-11-12T08:15:04.093Z,5.48
2022-11-12T08:15:59.528Z,5.48
2022-11-12T08:16:55.503Z,5.48
2022-11-12T08:17:50.790Z,5.50
2022-11-12T08:18:46.162Z,5.49
2022-11-12T08:19:41.627Z,5.52
2022-11-12T08:20:37.468Z,5.52
2022-11-12T08:21:33.178Z,5.49
2022-11-12T08:22:28.477Z,5.45
2022-11-12T08:23:24.906Z,5.43
2022-11-12T08:24:20.346Z,5.42
2022-11-12T08:25:16.191Z,5.36
2022-11-12T08:26:12.649Z,5.32
2022-11-12T08:27:07.425Z,5.29
2022-11-12T08:28:03.683Z,5.28
2022-11-12T08:29:01.688Z,5.25
2022-11-12T08:29:55.981Z,5.24
2022-11-12T08:30:50.342Z,5.28
2022-11-12T08:31:45.992Z,5.35
2022-11-12T08:32:42.605Z,5.35
2022-11-12T08:33:37.807Z,5.30
2022-11-12T08:34:33.218Z,5.30
2022-11-12T08:35:29.549Z,5.32
2022-11-12T08:36:25.308Z,5.36
2022-11-12T08:37:21.412Z,5.39
2022-11-12T08:38:16.291Z,5.40
2022-11-12T08:39:11.711Z,5.42
2022-11-12T08:40:07.159Z,5.45
2022-11-12T08:41:02.789Z,5.45
2022-11-12T08:41:58.909Z,5.52
2022-11-12T08:42:54.347Z,5.53
2022-11-12T08:43:50.077Z,5.56
2022-11-12T08:44:45.582Z,5.58
2022-11-12T08:45:40.968Z,5.60
2022-11-12T08:46:36.775Z,5.60
2022-11-12T08:47:32.218Z,5.64
2022-11-12T08:48:28.337Z,5.71
2022-11-12T08:49:23.494Z,5.66
2022-11-12T08:50:18.819Z,5.59
2022-11-12T08:51:15.136Z,5.55
2022-11-12T08:52:10.388Z,5.54
2022-11-12T08:53:05.835Z,5.52
2022-11-12T08:54:02.139Z,5.53
2022-11-12T08:54:57.562Z,5.51
2022-11-12T08:55:52.969Z,5.48
2022-11-12T08:56:48.448Z,5.45
2022-11-12T08:57:45.098Z,5.39
2022-11-12T08:58:40.572Z,5.35
2022-11-12T08:59:35.626Z,5.33
2022-11-12T09:00:31.342Z,5.34
2022-11-12T09:01:25.853Z,5.37
2022-11-12T09:02:20.948Z,5.37
2022-11-12T09:03:15.959Z,5.35
2022-11-12T09:04:11.103Z,5.28
2022-11-12T09:05:06.256Z,5.29
2022-11-12T09:06:01.276Z,5.30
2022-11-12T09:06:56.389Z,5.36
2022-11-12T09:07:51.895Z,5.37
2022-11-12T09:08:46.473Z,5.38
2022-11-12T09:09:41.728Z,5.40
2022-11-12T09:10:37.303Z,5.47
2022-11-12T09:11:31.595Z,5.49
2022-11-12T09:12:26.628Z,5.53
2022-11-12T09:13:21.725Z,5.54
2022-11-12T09:14:16.756Z,5.58
2022-11-12T09:16:07.847Z,5.46
2022-11-12T09:17:01.848Z,5.44
2022-11-12T09:17:56.875Z,5.47
2022-11-12T09:18:52.220Z,5.49
2022-11-12T09:19:47.654Z,5.53
2022-11-12T09:20:44.189Z,5.58
2022-11-12T09:21:39.648Z,5.67
2022-11-12T09:22:35.365Z,5.75
2022-11-12T09:23:30.849Z,5.78
2022-11-12T09:24:26.271Z,5.81
2022-11-12T09:25:22.150Z,5.77
2022-11-12T09:26:17.604Z,5.77
2022-11-12T09:27:13.354Z,5.81
2022-11-12T09:28:08.765Z,5.80
2022-11-12T09:29:04.210Z,5.81
2022-11-12T09:30:00.074Z,5.75
2022-11-12T09:30:55.544Z,5.67
2022-11-12T09:31:50.956Z,5.67
2022-11-12T09:32:47.239Z,5.70
2022-11-12T09:33:42.767Z,5.69
2022-11-12T09:34:38.507Z,5.67
2022-11-12T09:35:33.973Z,5.63
2022-11-12T09:36:29.549Z,5.63
2022-11-12T09:37:25.136Z,5.63
2022-11-12T09:38:20.556Z,5.64
2022-11-12T09:39:16.398Z,5.67
2022-11-12T09:40:11.759Z,5.73
2022-11-12T09:41:07.254Z,5.75
2022-11-12T09:42:03.054Z,5.72
2022-11-12T09:42:58.473Z,5.72
2022-11-12T09:43:53.894Z,5.76
2022-11-12T09:44:50.158Z,5.82
2022-11-12T09:46:00.012Z,5.89
2022-11-12T09:46:42.496Z,5.92
2022-11-12T09:47:36.931Z,5.99
2022-11-12T09:48:32.322Z,6.02
2022-11-12T09:49:28.113Z,6.01
2022-11-12T09:50:23.547Z,6.02
2022-11-12T09:51:19.437Z,6.05
2022-11-12T09:52:14.761Z,6.04
2022-11-12T09:53:10.193Z,6.15
2022-11-12T09:54:05.951Z,6.27
2022-11-12T09:55:01.370Z,6.32
2022-11-12T09:55:56.798Z,6.20
2022-11-12T09:56:53.150Z,6.17
2022-11-12T09:57:48.586Z,6.16
2022-11-12T09:58:44.455Z,6.14
2022-11-12T09:59:40.075Z,6.12
2022-11-12T10:00:35.545Z,6.17
2022-11-12T10:01:31.344Z,6.24
2022-11-12T10:02:26.683Z,6.28
2022-11-12T10:03:22.517Z,6.36
2022-11-12T10:04:17.914Z,6.41
2022-11-12T10:05:13.323Z,6.45
2022-11-12T10:06:10.741Z,6.48
2022-11-12T10:07:04.558Z,6.53
2022-11-12T10:07:59.982Z,6.59
2022-11-12T10:08:56.260Z,6.64
2022-11-12T10:09:51.696Z,6.63
2022-11-12T10:10:48.079Z,6.56
2022-11-12T10:11:42.923Z,6.46
2022-11-12T10:12:38.337Z,6.46
2022-11-12T10:13:34.185Z,6.46
2022-11-12T10:14:29.710Z,6.48
2022-11-12T10:15:25.473Z,6.53
2022-11-12T10:16:20.938Z,6.47
2022-11-12T10:17:16.268Z,6.47
2022-11-12T10:18:12.038Z,6.46
2022-11-12T10:19:07.546Z,6.43
2022-11-12T10:20:03.179Z,6.42
2022-11-12T10:21:02.879Z,6.40
2022-11-12T10:21:58.274Z,6.39
2022-11-12T10:22:53.730Z,6.36
2022-11-12T10:23:49.478Z,6.35
2022-11-12T10:24:44.920Z,6.38
2022-11-12T10:25:40.385Z,6.35
2022-11-12T10:26:36.688Z,6.29
2022-11-12T10:27:32.119Z,6.27
2022-11-12T10:28:28.367Z,6.25
2022-11-12T10:29:23.344Z,6.23
2022-11-12T10:30:18.902Z,6.16
2022-11-12T10:31:14.619Z,6.12
2022-11-12T10:32:10.051Z,6.12
2022-11-12T10:33:05.880Z,6.15
2022-11-12T10:34:01.227Z,6.20
2022-11-12T10:34:56.637Z,6.23
2022-11-12T10:35:52.128Z,6.28
2022-11-12T10:36:47.550Z,6.26
2022-11-12T10:37:44.330Z,6.26
2022-11-12T10:38:39.767Z,6.28
2022-11-12T10:39:35.172Z,6.28
2022-11-12T10:40:30.902Z,6.24
2022-11-12T10:42:52.516Z,5.84
2022-11-12T10:43:47.678Z,6.07
2022-11-12T10:44:43.072Z,6.20
2022-11-12T10:45:38.521Z,6.30
2022-11-12T10:46:33.969Z,6.36
2022-11-12T10:47:29.549Z,6.44
2022-11-12T10:48:27.524Z,6.43
2022-11-12T10:49:20.247Z,6.40
2022-11-12T10:50:15.767Z,6.40
2022-11-12T10:51:11.152Z,6.39
2022-11-12T10:52:06.537Z,6.42
2022-11-12T10:53:02.118Z,6.44
2022-11-12T10:53:57.751Z,6.44
2022-11-12T10:54:55.227Z,6.38
2022-11-12T10:55:48.419Z,6.32
2022-11-12T10:56:43.829Z,6.32
2022-11-12T10:57:39.274Z,6.28
2022-11-12T10:58:34.714Z,6.32
2022-11-12T10:59:30.143Z,6.35
2022-11-12T11:00:25.526Z,6.35
2022-11-12T11:01:20.974Z,6.37
2022-11-12T11:02:16.440Z,6.37
2022-11-12T11:03:11.984Z,6.34
2022-11-12T11:04:07.380Z,6.33
2022-11-12T11:05:02.673Z,6.35
2022-11-12T11:05:58.093Z,6.34
2022-11-12T11:06:53.505Z,6.29
2022-11-12T11:07:48.878Z,6.32
2022-11-12T11:08:44.311Z,6.40
2022-11-12T11:09:39.662Z,6.50
2022-11-12T11:10:35.110Z,6.60
2022-11-12T11:11:30.598Z,6.69
2022-11-12T11:12:26.067Z,6.77
2022-11-12T11:13:21.657Z,6.76
2022-11-12T11:14:16.866Z,6.77
2022-11-12T11:15:12.383Z,6.79
2022-11-12T11:16:07.939Z,6.79
2022-11-12T11:17:03.466Z,6.75
2022-11-12T11:17:58.887Z,6.65
2022-11-12T11:18:54.409Z,6.61
2022-11-12T11:19:49.712Z,6.66
2022-11-12T11:20:45.138Z,6.68
2022-11-12T11:21:42.304Z,6.69
2022-11-12T11:22:36.166Z,6.68
2022-11-12T11:23:31.558Z,6.63
2022-11-12T11:24:26.946Z,6.57
2022-11-12T11:25:23.310Z,6.53
2022-11-12T11:26:17.919Z,6.53
2022-11-12T11:27:13.248Z,6.58
2022-11-12T11:28:08.735Z,6.64
2022-11-12T11:29:04.174Z,6.73
2022-11-12T11:29:59.622Z,6.78
2022-11-12T11:30:55.234Z,6.67
2022-11-12T11:31:50.647Z,6.55
2022-11-12T11:32:46.099Z,6.47
2022-11-12T11:33:41.507Z,6.42
2022-11-12T11:34:36.900Z,6.36
2022-11-12T11:35:32.351Z,6.36
2022-11-12T11:36:27.771Z,6.38
2022-11-12T11:37:23.316Z,6.43
2022-11-12T11:38:18.778Z,6.50
2022-11-12T11:39:14.177Z,6.56
2022-11-12T11:40:09.710Z,6.61
2022-11-12T11:41:05.102Z,6.66
2022-11-12T11:42:00.589Z,6.73
2022-11-12T11:42:55.913Z,6.74
2022-11-12T11:43:51.470Z,6.74
2022-11-12T11:44:46.778Z,6.75
2022-11-12T11:45:42.234Z,6.82
2022-11-12T11:46:37.857Z,6.91
2022-11-12T11:47:44.095Z,6.96
2022-11-12T11:48:29.788Z,6.95
2022-11-12T11:49:24.283Z,6.98
2022-11-12T11:50:19.658Z,7.04
2022-11-12T11:51:15.792Z,7.09
2022-11-12T11:52:10.674Z,7.15
2022-11-12T11:53:06.128Z,7.18
2022-11-12T11:54:02.437Z,7.23
2022-11-12T11:54:58.235Z,7.24
2022-11-12T11:55:52.791Z,7.16
2022-11-12T11:56:47.977Z,7.05
2022-11-12T11:57:43.558Z,7.01
2022-11-12T11:58:39.240Z,7.00
2022-11-12T11:59:34.379Z,7.01
2022-11-12T12:00:30.179Z,7.05
2022-11-12T12:01:25.507Z,7.08
2022-11-12T12:02:20.804Z,7.11
2022-11-12T12:03:16.263Z,7.16
2022-11-12T12:04:11.560Z,7.16
2022-11-12T12:05:06.964Z,7.17
2022-11-12T12:06:02.469Z,7.14
2022-11-12T12:06:57.804Z,7.10
2022-11-12T12:07:53.204Z,7.07
2022-11-12T12:08:48.632Z,7.05
2022-11-12T12:09:44.266Z,7.08
2022-11-12T12:11:01.684Z,7.08
2022-11-12T12:11:36.193Z,7.09
2022-11-12T12:12:30.533Z,7.11
2022-11-12T12:13:25.975Z,7.12
2022-11-12T12:14:21.836Z,7.12
2022-11-12T12:15:17.691Z,7.14
2022-11-12T12:16:12.398Z,7.16
2022-11-12T12:17:08.822Z,7.19
2022-11-12T12:18:03.304Z,7.20
2022-11-12T12:18:58.720Z,7.20
2022-11-12T12:19:54.177Z,7.21